Notice: Undefined index: language in /home/u232659314/public_html/vam/index.php on line 31
Pluna Virtual

METAR AND TAF INFORMATION
METAR FOR SUCA
ADDS - METARS form results

(2049 UTC 24 May 2019)
Data provider http://aviationweather.gov/metar/data/
 
Forecast for: SUCA (COLONIA SACRAMEN, UY)
Text: SUCA 241730Z 2418/2518 29008KT CAVOK TX18/2518Z TN07/2510Z
Forecast period: 1800 UTC 24 May 2019 to 1800 UTC 25 May 2019
Forecast type: FROM: standard forecast or significant change
Winds: from the WNW (290 degrees) at 9 MPH (8 knots; 4.1 m/s)
Visibility: 6 or more miles 10+ km)
Ceiling: unknown
Clouds: missing
Weather: no significant weather forecast for this period
Text: TEMPO 2503/2505 36012KT
Forecast period: 0300 to 0500 UTC 25 May 2019
Forecast type: TEMPORARY: The following changes expected for less than half the time period
Winds: from the N (360 degrees) at 14 MPH (12 knots; 6.2 m/s)
Visibility: missing
Ceiling: unknown
Clouds: missing
Weather: no significant weather forecast for this period

AIRPORT MAP

RUNWAY INFORMATION
Runway 12 Runway length 4495 ft Runway width 0 ft
Runway elevation 66 ft Runway displaced threshold 0 ft Runway heading 0
Runway 30 Runway length 4495 ft Runway width 0 ft
Runway elevation 33 ft Runway displaced threshold 0 ft Runway heading 0

AIRPORT FREQUENCIES

AIRPORT NEAR NAVIGATION AIDS
Type NDB Name Colonia Frequency 203 KHZ